• Join FlightAware (Why Join?)
  • Login
  • US Flag 
08:47PM EDT


 

Airport Tracker/Info


-or-


 

Live Flight TrackerFlight Track Log ✈ N400PU ✈ 05-Dec-2013 ✈ KBWI - KPNE

Flight Track Log - Related Links

Times and Time Zones

All times are in EST time to prevent confusion due to time zone crossing. See the N400PU flight status page for this flight to view local times or setup timezone preferences in your user account.

Time Position Orientation Groundspeed Altitude Reporting Facility
EST Latitude Longitude Course Direction KTS MPH feet Rate Location/Type
12:45PM 39.1500 -76.6500 131° Southeast 174 200 2,200  Level Potomac TRACON
12:46PM 39.1167 -76.6000 131° Southeast 183 211 4,900 2,340 Climbing Potomac TRACON
12:47PM 39.1000 -76.5333 108° East 231 266 6,900 1,800 Climbing Potomac TRACON
12:48PM 39.1167 -76.4333 78° East 300 345 8,600 1,620 Climbing Potomac TRACON
12:49PM 39.1333 -76.3167 80° East 335 386 10,200 1,200 Climbing Potomac TRACON
12:49PM 39.1667 -76.2167 67° East 364 419 10,900 360 Climbing Potomac TRACON
12:50PM 39.2333 -76.1167 49° Northeast 394 453 10,900  Level Potomac TRACON
12:52PM 39.3833 -75.9500 41° Northeast 397 457 11,000  Climbing Philadelphia TRACON
12:53PM 39.4667 -75.8500 43° Northeast 398 458 11,000  Level Philadelphia TRACON
12:54PM 39.5500 -75.7667 38° Northeast 399 459 11,000  Level Philadelphia TRACON
12:55PM 39.6333 -75.6667 43° Northeast 398 458 11,000  Level Philadelphia TRACON
12:56PM 39.7000 -75.5500 53° Northeast 404 465 11,000  Level Philadelphia TRACON
12:57PM 39.7333 -75.4167 72° East 403 464 11,000  Level Philadelphia TRACON
12:58PM 39.7667 -75.2667 74° East 405 466 11,000 -360 Level Philadelphia TRACON
12:59PM 39.7833 -75.1500 79° East 336 387 10,300 -1,620 Descending Philadelphia TRACON
01:00PM 39.8167 -75.0333 70° East 324 373 7,800 -2,220 Descending Philadelphia TRACON
01:01PM 39.8667 -74.9667 46° Northeast 273 314 5,900 -1,860 Descending Philadelphia TRACON
01:02PM 39.9500 -74.9333 17° North 283 326 4,100 -1,500 Descending Philadelphia TRACON
01:03PM 40.0167 -74.9167 11° North 278 320 3,000 -600 Descending Philadelphia TRACON
01:04PM 40.0833 -74.8667 30° Northeast 225 259 3,000  Level Philadelphia TRACON
01:05PM 40.1333 -74.8167 37° Northeast 204 235 3,000  Level Philadelphia TRACON
01:06PM 40.1667 -74.7667 49° Northeast 208 239 3,000  Level Philadelphia TRACON
01:07PM 40.2167 -74.7333 27° Northeast 215 247 3,000  Level Philadelphia TRACON
01:08PM 40.2500 -74.7667 323° Northwest 188 216 3,000 -120 Level Philadelphia TRACON
01:09PM 40.2167 -74.8167 229° Southwest 147 169 2,800 -540 Descending Philadelphia TRACON
01:10PM 40.2000 -74.8500 237° Southwest 138 159 2,000 -420 Descending Philadelphia TRACON
01:11PM 40.1667 -74.8833 217° Southwest 150 173 2,000 -180 Level Philadelphia TRACON
01:12PM 40.1500 -74.9167 237° Southwest 109 125 1,700 -420 Descending Philadelphia TRACON
01:13PM 40.1167 -74.9500 217° Southwest 109 125 1,200 -600 Descending Philadelphia TRACON
01:14PM 40.1000 -74.9833 237° Southwest 118 136 600 -600 Descending Philadelphia TRACON